createdAt,value
2018-09-28T00:00:44.507Z,11.13
2018-09-28T00:03:15.298Z,11.67
2018-09-28T00:05:45.660Z,15.90
2018-09-28T00:08:16.155Z,22.60
2018-09-28T00:10:46.630Z,19.80
2018-09-28T00:13:17.120Z,14.83
2018-09-28T00:15:47.508Z,19.23
2018-09-28T00:18:17.742Z,15.43
2018-09-28T00:20:48.051Z,15.93
2018-09-28T00:23:19.035Z,15.70
2018-09-28T00:25:49.549Z,14.57
2018-09-28T00:28:19.987Z,13.10
2018-09-28T00:30:50.168Z,12.80
2018-09-28T00:33:20.561Z,13.90
2018-09-28T00:35:51.084Z,19.30
2018-09-28T00:38:21.375Z,14.57
2018-09-28T00:40:51.703Z,13.70
2018-09-28T00:43:22.150Z,14.93
2018-09-28T00:45:52.588Z,12.50
2018-09-28T00:48:23.019Z,17.33
2018-09-28T00:50:53.191Z,15.27
2018-09-28T00:53:23.793Z,13.37
2018-09-28T00:55:54.416Z,16.90
2018-09-28T00:58:24.742Z,15.60
2018-09-28T01:00:55.112Z,14.67
2018-09-28T01:03:25.535Z,14.73
2018-09-28T01:05:55.907Z,17.87
2018-09-28T01:08:26.385Z,15.60
2018-09-28T01:10:56.795Z,20.50
2018-09-28T01:13:27.250Z,30.63
2018-09-28T01:15:57.634Z,23.07
2018-09-28T01:18:28.001Z,18.33
2018-09-28T01:20:58.488Z,24.33
2018-09-28T01:23:29.092Z,19.00
2018-09-28T01:25:59.581Z,27.10
2018-09-28T01:28:29.939Z,20.20
2018-09-28T01:31:00.377Z,21.20
2018-09-28T01:33:30.787Z,19.23
2018-09-28T01:36:01.259Z,19.63
2018-09-28T01:38:31.752Z,19.40
2018-09-28T01:41:02.348Z,20.03
2018-09-28T01:43:33.380Z,18.57
2018-09-28T01:46:03.617Z,19.50
2018-09-28T01:48:34.003Z,19.07
2018-09-28T01:51:04.411Z,19.27
2018-09-28T01:53:34.872Z,17.23
2018-09-28T01:56:05.344Z,19.60
2018-09-28T01:58:35.820Z,15.30
2018-09-28T02:01:06.251Z,13.13
2018-09-28T02:03:36.641Z,17.67
2018-09-28T02:06:07.157Z,20.83
2018-09-28T02:08:37.902Z,18.63
2018-09-28T02:11:08.320Z,17.00
2018-09-28T02:13:38.792Z,18.50
2018-09-28T02:16:09.325Z,18.53
2018-09-28T02:18:39.738Z,18.50
2018-09-28T02:21:10.138Z,19.60
2018-09-28T02:23:40.629Z,25.77
2018-09-28T02:26:11.211Z,29.03
2018-09-28T02:28:42.181Z,20.27
2018-09-28T02:31:12.510Z,21.40
2018-09-28T02:33:42.895Z,25.63
2018-09-28T02:36:13.237Z,27.73
2018-09-28T02:38:43.633Z,26.80
2018-09-28T02:41:14.120Z,22.80
2018-09-28T02:43:44.608Z,27.10
2018-09-28T02:46:15.106Z,21.47
2018-09-28T02:48:45.447Z,30.67
2018-09-28T02:51:15.869Z,25.70
2018-09-28T02:53:46.305Z,27.97
2018-09-28T02:56:16.699Z,27.80
2018-09-28T02:58:47.070Z,23.97
2018-09-28T03:01:17.323Z,26.33
2018-09-28T03:03:47.822Z,25.67
2018-09-28T03:06:18.293Z,25.60
2018-09-28T03:08:48.612Z,31.27
2018-09-28T03:11:19.197Z,26.90
2018-09-28T03:13:49.664Z,28.13
2018-09-28T03:16:20.019Z,26.00
2018-09-28T03:18:50.496Z,32.70
2018-09-28T03:21:20.823Z,29.17
2018-09-28T03:23:51.140Z,32.57
2018-09-28T03:26:21.435Z,29.63
2018-09-28T03:28:51.799Z,33.73
2018-09-28T03:31:22.296Z,31.13
2018-09-28T03:33:52.704Z,29.33
2018-09-28T03:36:22.947Z,34.83
2018-09-28T03:38:53.430Z,30.80
2018-09-28T03:41:23.759Z,34.50
2018-09-28T03:43:54.220Z,32.70
2018-09-28T03:46:24.720Z,35.80
2018-09-28T03:48:54.952Z,34.73
2018-09-28T03:51:25.422Z,31.47
2018-09-28T03:53:55.951Z,30.77
2018-09-28T03:56:26.461Z,30.13
2018-09-28T03:58:57.057Z,36.27
2018-09-28T04:01:27.365Z,37.13
2018-09-28T04:03:57.865Z,32.87
2018-09-28T04:06:28.420Z,34.87
2018-09-28T04:08:58.932Z,39.50
2018-09-28T04:11:29.321Z,36.43
2018-09-28T04:13:59.644Z,35.83
2018-09-28T04:16:30.184Z,38.77
2018-09-28T04:19:00.809Z,35.23
2018-09-28T04:21:31.291Z,39.30
2018-09-28T04:24:01.991Z,33.63
2018-09-28T04:26:32.951Z,38.17
2018-09-28T04:29:03.395Z,35.17
2018-09-28T04:31:33.831Z,33.90
2018-09-28T04:34:04.392Z,36.43
2018-09-28T04:36:35.590Z,42.00
2018-09-28T04:39:13.436Z,40.23
2018-09-28T04:41:49.935Z,35.23
2018-09-28T04:44:28.096Z,42.23
2018-09-28T04:46:58.743Z,36.37
2018-09-28T04:49:29.720Z,36.93
2018-09-28T04:52:00.220Z,41.83
2018-09-28T04:54:30.519Z,37.70
2018-09-28T04:57:00.948Z,40.20
2018-09-28T04:59:31.532Z,37.17
2018-09-28T05:02:02.163Z,39.23
2018-09-28T05:04:32.800Z,39.20
2018-09-28T05:07:03.384Z,42.00
2018-09-28T05:09:33.625Z,46.57
2018-09-28T05:12:04.161Z,41.13
2018-09-28T05:14:34.726Z,41.03
2018-09-28T05:17:05.869Z,41.93
2018-09-28T05:19:36.459Z,41.70
2018-09-28T05:22:06.835Z,43.13
2018-09-28T05:24:37.509Z,39.93
2018-09-28T05:27:08.252Z,39.50
2018-09-28T05:29:38.893Z,34.77
2018-09-28T05:32:09.403Z,45.80
2018-09-28T05:34:39.975Z,40.63
2018-09-28T05:37:10.430Z,26.60
2018-09-28T05:39:40.983Z,26.00
2018-09-28T05:42:11.412Z,23.23
2018-09-28T05:44:41.918Z,23.87
2018-09-28T05:47:12.317Z,29.23
2018-09-28T05:49:42.710Z,26.53
2018-09-28T05:52:13.207Z,19.60
2018-09-28T05:54:43.552Z,19.60
2018-09-28T05:57:14.075Z,25.33
2018-09-28T05:59:49.432Z,29.60
2018-09-28T06:02:24.914Z,21.27
2018-09-28T06:05:00.227Z,15.00
2018-09-28T06:07:30.595Z,16.87
2018-09-28T06:10:00.952Z,14.27
2018-09-28T06:12:31.212Z,12.23
2018-09-28T06:15:01.472Z,17.57
2018-09-28T06:17:32.042Z,12.03
2018-09-28T06:20:02.700Z,13.30
2018-09-28T06:22:33.140Z,10.37
2018-09-28T06:25:03.535Z,14.33
2018-09-28T06:27:33.990Z,9.93
2018-09-28T06:30:04.528Z,7.43
2018-09-28T06:32:34.891Z,10.27
2018-09-28T06:35:05.566Z,7.70
2018-09-28T06:37:36.050Z,12.70
2018-09-28T06:40:06.513Z,21.43
2018-09-28T06:42:37.008Z,10.60
2018-09-28T06:45:07.605Z,15.50
2018-09-28T06:47:38.191Z,11.83
2018-09-28T06:50:09.184Z,14.53
2018-09-28T06:52:39.536Z,12.03
2018-09-28T06:55:10.020Z,15.80
2018-09-28T06:57:40.418Z,18.30
2018-09-28T07:00:10.877Z,9.87
2018-09-28T07:02:41.347Z,15.13
2018-09-28T07:05:16.980Z,8.93
2018-09-28T07:07:47.335Z,19.87
2018-09-28T07:10:17.979Z,22.07
2018-09-28T07:12:48.448Z,26.63
2018-09-28T07:15:19.028Z,14.13
2018-09-28T07:17:49.460Z,16.70
2018-09-28T07:20:19.852Z,16.00
2018-09-28T07:22:50.360Z,16.40
2018-09-28T07:25:20.809Z,14.70
2018-09-28T07:27:51.289Z,17.13
2018-09-28T07:30:21.804Z,15.60
2018-09-28T07:32:52.157Z,15.10
2018-09-28T07:35:23.427Z,15.40
2018-09-28T07:38:08.283Z,14.80
2018-09-28T07:40:38.648Z,12.27
2018-09-28T07:43:09.000Z,13.07
2018-09-28T07:45:39.402Z,15.27
2018-09-28T07:48:09.750Z,22.43
2018-09-28T07:50:40.688Z,19.40
2018-09-28T07:53:11.099Z,14.60
2018-09-28T07:55:41.474Z,14.27
2018-09-28T07:58:11.734Z,21.57
2018-09-28T08:00:42.087Z,15.80
2018-09-28T08:03:12.483Z,17.20
2018-09-28T08:05:43.079Z,12.17
2018-09-28T08:08:14.040Z,22.43
2018-09-28T08:10:44.400Z,17.30
2018-09-28T08:13:14.691Z,17.83
2018-09-28T08:15:45.076Z,22.60
2018-09-28T08:18:21.037Z,15.17
2018-09-28T08:20:51.547Z,18.13
2018-09-28T08:23:21.884Z,14.30
2018-09-28T08:25:52.372Z,14.77
2018-09-28T08:28:22.867Z,21.10
2018-09-28T08:30:53.181Z,12.70
2018-09-28T08:33:23.578Z,18.33
2018-09-28T08:35:53.971Z,13.40
2018-09-28T08:38:24.372Z,14.33
2018-09-28T08:40:54.603Z,16.87
2018-09-28T08:43:24.931Z,19.40
2018-09-28T08:45:55.287Z,15.37
2018-09-28T08:48:25.688Z,12.23
2018-09-28T08:50:56.254Z,13.93
2018-09-28T08:53:26.623Z,19.13
2018-09-28T08:55:57.041Z,16.50
2018-09-28T08:58:27.401Z,16.40
2018-09-28T09:00:58.116Z,13.87
2018-09-28T09:03:28.537Z,23.97
2018-09-28T09:05:58.966Z,10.10
2018-09-28T09:08:29.312Z,13.17
2018-09-28T09:10:59.572Z,13.60
2018-09-28T09:13:30.035Z,14.47
2018-09-28T09:16:00.635Z,23.03
2018-09-28T09:18:31.040Z,10.77
2018-09-28T09:21:01.312Z,12.73
2018-09-28T09:23:31.590Z,13.73
2018-09-28T09:26:01.957Z,13.27
2018-09-28T09:28:32.347Z,18.03
2018-09-28T09:31:02.632Z,18.80
2018-09-28T09:33:32.979Z,12.60
2018-09-28T09:36:03.461Z,15.23
2018-09-28T09:38:33.784Z,12.50
2018-09-28T09:41:04.230Z,13.33
2018-09-28T09:43:34.487Z,15.13
2018-09-28T09:46:04.988Z,8.07
2018-09-28T09:48:35.273Z,6.60
2018-09-28T09:51:05.775Z,11.83
2018-09-28T09:53:36.165Z,10.33
2018-09-28T09:56:06.588Z,9.73
2018-09-28T09:58:36.811Z,11.37
2018-09-28T10:01:08.479Z,18.10
2018-09-28T10:03:43.622Z,8.20
2018-09-28T10:06:14.201Z,7.67
2018-09-28T10:08:44.436Z,12.77
2018-09-28T10:11:14.918Z,16.87
2018-09-28T10:13:45.292Z,7.67
2018-09-28T10:16:15.680Z,10.40
2018-09-28T10:18:45.875Z,12.60
2018-09-28T10:21:16.394Z,5.97
2018-09-28T10:23:46.835Z,9.60
2018-09-28T10:26:17.383Z,10.40
2018-09-28T10:28:47.799Z,10.80
2018-09-28T10:31:18.143Z,6.13
2018-09-28T10:33:48.371Z,10.10
2018-09-28T10:36:18.709Z,11.20
2018-09-28T10:38:49.120Z,7.43
2018-09-28T10:41:19.522Z,5.43
2018-09-28T10:43:49.865Z,8.77
2018-09-28T10:46:20.249Z,10.70
2018-09-28T10:48:50.637Z,10.47
2018-09-28T10:51:21.055Z,10.30
2018-09-28T10:53:51.375Z,8.43
2018-09-28T10:56:21.883Z,9.40
2018-09-28T10:58:52.318Z,10.97
2018-09-28T11:01:22.855Z,8.37
2018-09-28T11:03:53.076Z,5.43
2018-09-28T11:06:23.459Z,8.20
2018-09-28T11:08:53.832Z,7.37
2018-09-28T11:11:24.340Z,3.80
2018-09-28T11:13:54.512Z,3.63
2018-09-28T11:16:25.016Z,3.93
2018-09-28T11:18:55.489Z,5.20
2018-09-28T11:21:26.198Z,6.77
2018-09-28T11:23:56.531Z,8.13
2018-09-28T11:26:27.636Z,6.10
2018-09-28T11:28:58.201Z,4.50
2018-09-28T11:31:28.612Z,4.83
2018-09-28T11:33:58.874Z,6.40
2018-09-28T11:36:29.431Z,4.83
2018-09-28T11:38:59.767Z,5.73
2018-09-28T11:41:30.246Z,8.53
2018-09-28T11:44:01.423Z,7.43
2018-09-28T11:46:31.804Z,8.90
2018-09-28T11:49:02.380Z,3.83
2018-09-28T11:51:33.050Z,5.87
2018-09-28T11:54:03.349Z,6.03
2018-09-28T11:56:35.927Z,7.30
2018-09-28T11:59:06.270Z,11.60
2018-09-28T12:01:36.744Z,10.17
2018-09-28T12:04:07.440Z,12.10
2018-09-28T12:06:37.926Z,6.13
2018-09-28T12:09:12.510Z,10.30
2018-09-28T12:11:43.501Z,5.37
2018-09-28T12:14:13.855Z,5.97
2018-09-28T12:16:51.092Z,6.80
2018-09-28T12:19:29.542Z,11.27
2018-09-28T12:22:00.015Z,6.13
2018-09-28T12:24:30.325Z,7.30
2018-09-28T12:27:00.732Z,8.80
2018-09-28T12:29:31.346Z,8.90
2018-09-28T12:32:01.904Z,4.83
2018-09-28T12:34:32.359Z,10.57
2018-09-28T12:37:02.718Z,5.77
2018-09-28T12:39:33.202Z,9.37
2018-09-28T12:42:04.492Z,6.13
2018-09-28T12:44:35.655Z,9.63
2018-09-28T12:47:06.228Z,2.93
2018-09-28T12:49:36.684Z,6.37
2018-09-28T12:52:07.398Z,12.80
2018-09-28T12:54:37.999Z,13.00
2018-09-28T12:57:09.048Z,5.17
2018-09-28T12:59:39.442Z,8.87
2018-09-28T13:02:09.862Z,2.60
2018-09-28T13:04:40.703Z,6.40
2018-09-28T13:07:11.168Z,5.33
2018-09-28T13:09:41.575Z,4.83
2018-09-28T13:12:12.165Z,9.63
2018-09-28T13:14:42.660Z,4.63
2018-09-28T13:17:13.129Z,4.10
2018-09-28T13:19:43.388Z,5.40
2018-09-28T13:22:13.893Z,6.07
2018-09-28T13:24:44.338Z,5.17
2018-09-28T13:27:14.825Z,6.50
2018-09-28T13:29:45.328Z,5.87
2018-09-28T13:32:15.645Z,9.77
2018-09-28T13:34:46.056Z,10.73
2018-09-28T13:37:16.349Z,6.13
2018-09-28T13:39:46.835Z,13.90
2018-09-28T13:42:17.129Z,18.10
2018-09-28T13:44:47.564Z,18.67
2018-09-28T13:47:17.980Z,8.80
2018-09-28T13:49:48.360Z,11.03
2018-09-28T13:52:18.998Z,3.43
2018-09-28T13:54:49.390Z,10.70
2018-09-28T13:57:19.682Z,6.40
2018-09-28T13:59:49.975Z,8.27
2018-09-28T14:02:20.249Z,6.60
2018-09-28T14:04:50.678Z,5.27
2018-09-28T14:07:20.968Z,5.43
2018-09-28T14:09:51.335Z,10.13
2018-09-28T14:12:21.744Z,5.70
2018-09-28T14:14:52.019Z,3.53
2018-09-28T14:17:22.530Z,2.53
2018-09-28T14:19:53.019Z,4.87
2018-09-28T14:22:23.371Z,1.97
2018-09-28T14:24:54.608Z,3.97
2018-09-28T14:27:24.956Z,2.97
2018-09-28T14:29:55.724Z,7.73
2018-09-28T14:32:26.050Z,4.67
2018-09-28T14:34:56.464Z,5.90
2018-09-28T14:37:27.004Z,4.60
2018-09-28T14:39:57.396Z,2.40
2018-09-28T14:42:27.672Z,9.73
2018-09-28T14:44:58.013Z,7.60
2018-09-28T14:47:28.529Z,3.67
2018-09-28T14:49:58.900Z,5.13
2018-09-28T14:52:29.166Z,12.10
2018-09-28T14:54:59.617Z,6.93
2018-09-28T14:57:29.995Z,7.07
2018-09-28T15:00:00.348Z,8.17
2018-09-28T15:02:30.948Z,6.97
2018-09-28T15:05:01.160Z,6.10
2018-09-28T15:07:31.708Z,6.73
2018-09-28T15:10:02.535Z,9.27
2018-09-28T15:12:33.038Z,4.70
2018-09-28T15:15:03.717Z,3.17
2018-09-28T15:17:34.203Z,6.53
2018-09-28T15:20:04.536Z,4.17
2018-09-28T15:22:35.040Z,3.93
2018-09-28T15:25:05.600Z,8.03
2018-09-28T15:27:36.106Z,5.63
2018-09-28T15:30:07.605Z,5.10
2018-09-28T15:32:38.190Z,10.13
2018-09-28T15:35:08.620Z,10.97
2018-09-28T15:37:39.300Z,13.37
2018-09-28T15:40:09.672Z,8.37
2018-09-28T15:42:39.927Z,10.30
2018-09-28T15:45:10.443Z,8.83
2018-09-28T15:47:40.806Z,10.57
2018-09-28T15:50:11.384Z,8.20
2018-09-28T15:52:41.839Z,5.93
2018-09-28T15:55:12.134Z,4.50
2018-09-28T15:57:42.574Z,7.70
2018-09-28T16:00:13.200Z,11.83
2018-09-28T16:02:43.725Z,6.90
2018-09-28T16:05:14.875Z,7.20
2018-09-28T16:07:45.330Z,11.73
2018-09-28T16:10:15.718Z,13.07
2018-09-28T16:12:45.972Z,9.47
2018-09-28T16:15:16.430Z,5.50
2018-09-28T16:17:46.871Z,14.83
2018-09-28T16:20:17.429Z,12.60
2018-09-28T16:22:47.828Z,9.93
2018-09-28T16:25:18.068Z,8.77
2018-09-28T16:27:48.437Z,11.07
2018-09-28T16:30:19.077Z,5.90
2018-09-28T16:32:49.426Z,5.07
2018-09-28T16:35:19.770Z,9.20
2018-09-28T16:37:50.056Z,5.90
2018-09-28T16:40:20.580Z,7.73
2018-09-28T16:42:51.083Z,4.90
2018-09-28T16:45:21.582Z,8.40
2018-09-28T16:47:51.905Z,5.93
2018-09-28T16:50:22.453Z,9.60
2018-09-28T16:52:52.947Z,8.10
2018-09-28T16:55:24.024Z,5.67
2018-09-28T16:57:54.488Z,12.77
2018-09-28T17:00:24.792Z,19.40
2018-09-28T17:02:55.216Z,11.63
2018-09-28T17:05:25.599Z,5.60
2018-09-28T17:07:56.109Z,10.87
2018-09-28T17:10:26.747Z,7.47
2018-09-28T17:12:57.140Z,13.50
2018-09-28T17:15:27.531Z,9.53
2018-09-28T17:17:57.889Z,11.77
2018-09-28T17:20:28.281Z,8.50
2018-09-28T17:22:58.623Z,13.90
2018-09-28T17:25:29.120Z,13.53
2018-09-28T17:27:59.432Z,8.80
2018-09-28T17:30:29.874Z,4.80
2018-09-28T17:33:00.386Z,6.80
2018-09-28T17:35:31.595Z,13.67
2018-09-28T17:38:02.066Z,10.10
2018-09-28T17:40:32.620Z,4.00
2018-09-28T17:43:03.306Z,7.70
2018-09-28T17:45:33.912Z,13.10
2018-09-28T17:48:04.404Z,7.70
2018-09-28T17:50:34.861Z,9.73
2018-09-28T17:53:05.412Z,13.07
2018-09-28T17:55:35.712Z,10.23
2018-09-28T17:58:06.120Z,5.97
2018-09-28T18:00:36.551Z,12.83
2018-09-28T18:03:07.063Z,14.67
2018-09-28T18:05:37.381Z,6.93
2018-09-28T18:08:07.976Z,6.40
2018-09-28T18:10:38.426Z,9.53
2018-09-28T18:13:09.796Z,5.43
2018-09-28T18:15:40.331Z,12.90
2018-09-28T18:18:10.771Z,6.03
2018-09-28T18:20:41.143Z,7.70
2018-09-28T18:23:11.322Z,7.87
2018-09-28T18:25:41.692Z,10.23
2018-09-28T18:28:19.779Z,12.80
2018-09-28T18:30:58.668Z,9.90
2018-09-28T18:33:37.210Z,9.07
2018-09-28T18:36:17.690Z,11.87
2018-09-28T18:38:57.716Z,12.97
2018-09-28T18:41:37.253Z,8.00
2018-09-28T18:44:08.012Z,10.83
2018-09-28T18:46:38.607Z,7.83
2018-09-28T18:49:09.207Z,10.03
2018-09-28T18:51:39.815Z,11.20
2018-09-28T18:54:10.028Z,7.67
2018-09-28T18:56:40.439Z,7.07
2018-09-28T18:59:10.868Z,7.60
2018-09-28T19:01:41.229Z,6.80
2018-09-28T19:04:11.572Z,11.80
2018-09-28T19:06:41.858Z,9.10
2018-09-28T19:09:12.891Z,9.40
2018-09-28T19:11:44.044Z,6.20
2018-09-28T19:14:14.559Z,11.37
2018-09-28T19:16:44.784Z,7.17
2018-09-28T19:19:15.299Z,7.87
2018-09-28T19:21:45.759Z,8.50
2018-09-28T19:24:16.176Z,4.83
2018-09-28T19:26:46.665Z,6.10
2018-09-28T19:29:16.999Z,16.23
2018-09-28T19:31:47.403Z,12.47
2018-09-28T19:34:17.787Z,7.83
2018-09-28T19:36:48.272Z,12.23
2018-09-28T19:39:19.095Z,12.10
2018-09-28T19:41:49.458Z,6.57
2018-09-28T19:44:32.362Z,15.40
2018-09-28T19:47:02.678Z,7.63
2018-09-28T19:49:33.241Z,12.87
2018-09-28T19:52:03.563Z,18.17
2018-09-28T19:54:34.007Z,14.13
2018-09-28T19:57:04.419Z,7.07
2018-09-28T19:59:34.670Z,12.73
2018-09-28T20:02:05.072Z,10.33
2018-09-28T20:04:35.607Z,10.30
2018-09-28T20:07:06.236Z,10.27
2018-09-28T20:09:36.595Z,7.30
2018-09-28T20:12:07.371Z,10.67
2018-09-28T20:14:38.067Z,7.93
2018-09-28T20:17:08.676Z,6.70
2018-09-28T20:19:39.110Z,6.27
2018-09-28T20:22:12.992Z,5.87
2018-09-28T20:24:43.389Z,6.27
2018-09-28T20:27:13.855Z,8.20
2018-09-28T20:29:44.350Z,6.53
2018-09-28T20:32:14.742Z,7.00
2018-09-28T20:34:45.112Z,12.67
2018-09-28T20:37:15.363Z,10.00
2018-09-28T20:39:45.860Z,15.93
2018-09-28T20:42:16.312Z,11.40
2018-09-28T20:44:46.999Z,12.27
2018-09-28T20:47:17.328Z,17.30
2018-09-28T20:49:47.680Z,11.60
2018-09-28T20:52:17.696Z,11.33
2018-09-28T20:54:47.731Z,12.07
2018-09-28T21:00:17.336Z,5.57
2018-09-28T21:02:47.540Z,8.93
2018-09-28T21:05:18.004Z,7.67
2018-09-28T21:07:48.383Z,13.20
2018-09-28T21:10:18.765Z,13.43
2018-09-28T21:12:49.191Z,11.07
2018-09-28T21:15:19.499Z,11.53
2018-09-28T21:17:49.713Z,19.47
2018-09-28T21:20:20.287Z,30.13
2018-09-28T21:22:50.674Z,35.90
2018-09-28T21:25:20.895Z,28.63
2018-09-28T21:27:52.156Z,35.90
2018-09-28T21:30:22.393Z,25.90
2018-09-28T21:32:52.672Z,17.47
2018-09-28T21:35:23.263Z,13.03
2018-09-28T21:37:53.573Z,12.10
2018-09-28T21:40:23.928Z,10.30
2018-09-28T21:42:54.292Z,8.70
2018-09-28T21:45:24.786Z,15.30
2018-09-28T21:47:55.212Z,9.60
2018-09-28T21:50:25.560Z,11.53
2018-09-28T21:52:55.917Z,14.70
2018-09-28T21:55:26.263Z,19.30
2018-09-28T21:57:56.679Z,8.23
2018-09-28T22:00:27.156Z,8.10
2018-09-28T22:02:57.865Z,18.50
2018-09-28T22:05:28.532Z,13.60
2018-09-28T22:07:58.712Z,5.37
2018-09-28T22:10:29.124Z,19.27
2018-09-28T22:12:59.388Z,12.20
2018-09-28T22:15:29.768Z,15.33
2018-09-28T22:18:00.275Z,7.00
2018-09-28T22:20:30.800Z,5.93
2018-09-28T22:23:01.819Z,10.80
2018-09-28T22:25:32.295Z,13.33
2018-09-28T22:28:02.771Z,9.40
2018-09-28T22:30:33.273Z,18.90
2018-09-28T22:33:03.752Z,8.00
2018-09-28T22:35:34.125Z,9.00
2018-09-28T22:38:04.497Z,9.90
2018-09-28T22:40:34.973Z,11.87
2018-09-28T22:43:05.476Z,11.37
2018-09-28T22:45:36.061Z,9.10
2018-09-28T22:48:06.639Z,8.57
2018-09-28T22:50:36.985Z,14.93
2018-09-28T22:53:07.328Z,7.73
2018-09-28T22:55:37.744Z,11.00
2018-09-28T22:58:08.161Z,6.57
2018-09-28T23:00:38.855Z,12.23
2018-09-28T23:03:09.535Z,9.43
2018-09-28T23:05:39.940Z,8.60
2018-09-28T23:08:10.392Z,19.70
2018-09-28T23:10:40.962Z,10.93
2018-09-28T23:13:11.426Z,13.20
2018-09-28T23:15:41.929Z,7.53
2018-09-28T23:18:12.239Z,12.13
2018-09-28T23:20:42.679Z,10.40
2018-09-28T23:23:13.073Z,16.03
2018-09-28T23:25:43.627Z,8.83
2018-09-28T23:28:14.020Z,7.87
2018-09-28T23:30:44.389Z,8.97
2018-09-28T23:33:14.699Z,6.50
2018-09-28T23:35:45.007Z,10.37
2018-09-28T23:38:15.372Z,5.07
2018-09-28T23:40:45.797Z,14.70
2018-09-28T23:43:16.096Z,13.00
2018-09-28T23:45:46.576Z,10.77
2018-09-28T23:48:16.875Z,12.30
2018-09-28T23:50:47.243Z,12.43
2018-09-28T23:53:17.408Z,17.60
2018-09-28T23:55:47.675Z,5.07
2018-09-28T23:58:18.106Z,10.60
